Page, AZ

5:19 AM MST on July 10, 2014 (GMT -0700)
Page Arizona (KAZPAGE1) Elev 4172 ft | 36.90 °N, 111.47 °W | Change Station

Current weather conditions updated 4 seconds ago

Mostly Cloudy
Mostly Cloudy
74.5 °F
Feels Like 77 °F
N
1.0
Wind Variable Wind from ESE
Gusts 3.0 mph

Today is forecast to be Cooler than yesterday.

Today
High -- | Low -- °F
--% Chance of Precip.
Yesterday
High -- | Low -- °F
Precip. -- in
5:15 AM 7:47 PM
Waxing Gibbous, 94% visible
Pressure 29.82 in
Visibility 10.0 miles
Clouds Mostly Cloudy 9500 ft
Heat Index 77 °F
Dew Point 53 °F
Humidity 47%
Rainfall 0.00 in
Snow Depth Not available.
UV 0 out of 12
Pollen 4.60 out of 12
Air Quality Not available.
Flu Activity Local Activity
METAR KPGA 101153Z AUTO 19003KT 10SM BKN095 25/11 A3004 RMK AO2 SLP098 T02500106 10294 20244 51001

More Conditions Fewer Conditions

Pressure 29.82 in
Visibility 10.0 miles
Clouds Mostly Cloudy 9500 ft
Heat Index 77 °F
Dew Point 53 °F
Humidity 47%
Rainfall 0.00 in
Snow Depth Not available.
UV 0 out of 12
Pollen 4.60 out of 12
Air Quality Not available.
Flu Activity Local Activity
METAR KPGA 101153Z AUTO 19003KT 10SM BKN095 25/11 A3004 RMK AO2 SLP098 T02500106 10294 20244 51001

More Conditions Fewer Conditions

10-Day Weather Forecast

Almanac

Astronomy

Jul. 10, 2014 Rise Set
Actual Time 5:15 AM MST 7:47 PM MST
Civil Twilight 4:44 AM MST 8:17 PM MST
Nautical Twilight 4:07 AM MST 8:54 PM MST
Astronomical Twilight 3:25 AM MST 9:36 PM MST
Moon 6:05 PM MST 3:28 AM MST
Length of Visible Light 15h 32m
Length of Day
14h 32m
Tomorrow will be 1m 0s shorter.
Waxing Gibbous, 94% of the Moon is Illuminated
Today
Waxing Gibbous
Jul 12
Full
Jul 18
Last Quarter
Jul 26
New
Aug 3
First Quarter

Today's Extremes

State Highs State Lows

Community

WunderPhotos

Upload Photos

1,732,111 photos uploaded!

Nearby

Snow Depth

Station Depth Elevation
Snowslide Canyon 1 in 9730 ft
White Horse Lake 0 in 7180 ft
Fry 0 in 7200 ft
Happy Jack 0 in 7630 ft
Baker Butte 0 in 7300 ft

Earthquake Activity

City Distance Mag. Time & Date
Cedar City, Utah 100 miles 2.6 2:30 PM MST
2014-07-04
Minimum magnitude displayed is 2.5.

Coastal Water Temperatures

Place Temperature
No Stations Reporting

Nearby Weather Stations

Station Location Temp. Heat Index Dew Point Humidity Wind Precip. Elev Updated Type
Page Arizona, Page, AZ 74.5 °F 77 °F 53 °F 47% ESE  at  1.0 mph 0.00 in / hr 4172 ft 5:19 AM MST Rapid Fire
RAWS PARIA POINT AZ, Page, AZ 64 °F - 47 °F 54% NNW  at  5 mph 0.00 in / hr 7234 ft 3:00 AM MST MADIS

Show More Stations Show Fewer Stations